No particular awareness of the weather is required.    There are no Weather-warnings


Meteo18 Weather Cam more information Meteo18 Weather Cam


Thunder radar more information blitzortung!


Rain radar more information rain snow radar


Visit our other weather sites:

Template documentation
and downloads

And another site



Weather Underground History page Text

Daily Summary for March 10, 2018 Units:  English    Metric   Both
« Previous Day
Next Day »
Daily Weekly Monthly Yearly Custom
  High: Low: Average:
Temperature: TemperatureC °F 9.7 °F 13.1 °F
Dew Point: DewpointC °F 7.7 °F 10.4 °F
Humidity: Humidity % 63 % 84 %
Wind Speed: WindSpeedKMH mph 0.0 mph 4 mph
Wind Gust: WindSpeedGustKMH mph - -
Wind:- - South
Pressure: PressurehPa in 998.2 in -
Precipitation: 10.9 in    
Historical Graphs
 
 
Tabular Data for March 10, 2018
Time Temperature Dew Point Pressure Wind Wind Speed Wind Gust Humidity Rainfall Rate (Hourly)
TemperatureC °F DewpointC °F PressurehPa in Calm     Humidity % HourlyPrecipMM in
00:04 12.2 °F 7.9 °F 1003.9 in Calm   3.2 mph 75 % 0.0 in
00:10 12.2 °F 7.9 °F 1003.9 in Calm     75 % 0.0 in
00:16 12.2 °F 7.9 °F 1003.9 in Calm     75 % 0.0 in
00:22 12.2 °F 7.9 °F 1003.9 in Calm   1.6 mph 75 % 0.0 in
00:28 12.2 °F 7.7 °F 1003.9 in Calm     74 % 0.0 in
00:34 12.2 °F 7.7 °F 1003.9 in Calm   3.2 mph 74 % 0.0 in
00:40 12.3 °F 7.8 °F 1003.9 in SE 1.4 mph 6.4 mph 74 % 0.0 in
00:46 12.4 °F 7.9 °F 1003.9 in Calm   1.6 mph 74 % 0.0 in
00:52 12.3 °F 7.8 °F 1003.9 in SSE 4.7 mph 4.8 mph 74 % 0.0 in
00:58 12.2 °F 7.9 °F 1003.9 in SE 1.4 mph 1.6 mph 75 % 0.0 in
01:04 12.2 °F 7.9 °F 1003.6 in SE 1.4 mph 3.2 mph 75 % 0.0 in
01:10 12.2 °F 7.9 °F 1003.9 in SE 3.2 mph 4.8 mph 75 % 0.0 in
01:16 12.2 °F 7.7 °F 1003.6 in SE 1.4 mph 3.2 mph 74 % 0.0 in
01:22 12.1 °F 7.8 °F 1003.6 in SE 1.4 mph 3.2 mph 75 % 0.0 in
01:28 11.9 °F 7.8 °F 1003.6 in SE 3.2 mph 8.0 mph 76 % 0.0 in
01:34 11.9 °F 7.8 °F 1003.6 in SE 1.4 mph 4.8 mph 76 % 0.0 in
01:40 11.9 °F 7.8 °F 1003.6 in SSE 3.2 mph 6.4 mph 76 % 0.0 in
01:46 11.8 °F 7.9 °F 1003.6 in Calm   3.2 mph 77 % 0.0 in
01:52 11.8 °F 7.9 °F 1003.6 in Calm   3.2 mph 77 % 0.0 in
01:58 11.8 °F 7.9 °F 1003.6 in Calm   3.2 mph 77 % 0.0 in
02:04 11.8 °F 7.9 °F 1003.6 in Calm   3.2 mph 77 % 0.0 in
02:10 11.8 °F 7.9 °F 1003.6 in Calm   1.6 mph 77 % 0.0 in
02:16 11.8 °F 7.9 °F 1003.6 in Calm   4.8 mph 77 % 0.0 in
02:22 11.8 °F 8.1 °F 1003.6 in South 3.2 mph 6.4 mph 78 % 0.0 in
02:29 11.8 °F 8.1 °F 1003.6 in SE 1.4 mph 4.8 mph 78 % 0.0 in
02:35 11.8 °F 8.1 °F 1003.6 in Calm   4.8 mph 78 % 0.0 in
02:41 11.7 °F 8.0 °F 1003.3 in SSE 3.2 mph 3.2 mph 78 % 0.0 in
02:47 11.7 °F 8.0 °F 1003.3 in SSE 1.4 mph 3.2 mph 78 % 0.0 in
02:53 11.7 °F 8.2 °F 1003.3 in SSE 1.4 mph 4.8 mph 79 % 0.0 in
02:59 11.6 °F 8.1 °F 1003.3 in SSE 1.4 mph 8.0 mph 79 % 0.0 in
03:05 11.6 °F 8.1 °F 1003.3 in South 3.2 mph 6.4 mph 79 % 0.0 in
03:11 11.6 °F 8.3 °F 1003.3 in SSE 4.7 mph 11.3 mph 80 % 0.0 in
03:17 11.6 °F 8.3 °F 1003.3 in SSE 6.4 mph 9.7 mph 80 % 0.0 in
03:23 11.5 °F 8.4 °F 1003.3 in SSE 1.4 mph 6.4 mph 81 % 0.0 in
03:29 11.4 °F 8.4 °F 1002.9 in SSE 6.4 mph 11.3 mph 82 % 0.0 in
03:35 11.2 °F 8.4 °F 1002.9 in SSE 3.2 mph 6.4 mph 83 % 0.0 in
03:41 11.1 °F 8.5 °F 1002.9 in SSE 3.2 mph 8.0 mph 84 % 0.0 in
03:47 11.0 °F 8.6 °F 1002.9 in SSE 3.2 mph 9.7 mph 85 % 0.0 in
03:53 10.8 °F 8.7 °F 1002.9 in East 11.1 mph 14.5 mph 87 % 0.3 in
03:59 10.5 °F 8.8 °F 1002.9 in SSE 1.4 mph 9.7 mph 89 % 0.5 in
04:05 10.3 °F 8.7 °F 1002.9 in ESE 3.2 mph 3.2 mph 90 % 0.8 in
04:11 10.2 °F 8.8 °F 1002.9 in Calm   6.4 mph 91 % 1.0 in
04:17 10.1 °F 8.9 °F 1002.9 in Calm   6.4 mph 92 % 1.3 in
04:23 10.1 °F 8.9 °F 1002.6 in SSE 1.4 mph 4.8 mph 92 % 1.5 in
04:29 10.0 °F 8.9 °F 1002.6 in Calm   3.2 mph 93 % 1.5 in
04:35 9.9 °F 8.8 °F 1002.6 in SE 1.4 mph 4.8 mph 93 % 1.5 in
04:41 9.9 °F 9.0 °F 1002.6 in SSE 4.7 mph 9.7 mph 94 % 1.8 in
04:47 9.9 °F 9.0 °F 1002.3 in SSE 1.4 mph 6.4 mph 94 % 1.8 in
04:53 9.8 °F 8.9 °F 1002.3 in SSE 3.2 mph 4.8 mph 94 % 1.5 in
04:59 9.8 °F 8.9 °F 1002.3 in SE 1.4 mph 4.8 mph 94 % 1.5 in
05:05 9.9 °F 9.1 °F 1001.9 in SE 3.2 mph 6.4 mph 95 % 1.3 in
05:11 9.8 °F 9.0 °F 1001.9 in SW 3.2 mph 3.2 mph 95 % 1.0 in
05:17 9.9 °F 9.1 °F 1001.9 in SSE 3.2 mph 6.4 mph 95 % 1.0 in
05:23 9.9 °F 9.1 °F 1001.9 in SW 4.7 mph 4.8 mph 95 % 0.8 in
05:29 9.9 °F 9.1 °F 1001.9 in Calm   8.0 mph 95 % 1.0 in
05:35 9.9 °F 9.1 °F 1001.9 in SSE 1.4 mph 8.0 mph 95 % 1.0 in
05:41 9.9 °F 9.1 °F 1001.9 in SE 1.4 mph 6.4 mph 95 % 1.0 in
05:47 9.9 °F 9.1 °F 1001.9 in South 3.2 mph 12.9 mph 95 % 1.3 in
05:53 9.9 °F 9.1 °F 1001.9 in SSW 3.2 mph 11.3 mph 95 % 1.5 in
05:59 9.9 °F 9.1 °F 1001.9 in SSE 6.4 mph 17.7 mph 95 % 1.5 in
06:05 9.9 °F 9.1 °F 1001.9 in SSE 4.7 mph 11.3 mph 95 % 1.5 in
06:11 9.9 °F 9.1 °F 1001.6 in SE 3.2 mph 12.9 mph 95 % 1.5 in
06:17 9.9 °F 9.1 °F 1001.6 in SE 11.1 mph 14.5 mph 95 % 1.5 in
06:23 9.9 °F 9.1 °F 1001.6 in SSE 4.7 mph 11.3 mph 95 % 1.8 in
06:29 9.9 °F 9.1 °F 1001.6 in SSE 4.7 mph 12.9 mph 95 % 1.8 in
06:35 9.8 °F 9.0 °F 1001.6 in SE 6.4 mph 11.3 mph 95 % 1.8 in
06:41 9.8 °F 9.0 °F 1001.6 in SSE 3.2 mph 9.7 mph 95 % 1.8 in
06:47 9.8 °F 9.0 °F 1001.2 in SE 3.2 mph 8.0 mph 95 % 1.8 in
06:53 9.8 °F 9.0 °F 1001.2 in SE 4.7 mph 9.7 mph 95 % 1.8 in
06:59 9.8 °F 9.0 °F 1001.2 in SSW 14.3 mph 14.5 mph 95 % 1.8 in
07:05 9.8 °F 9.0 °F 1001.2 in SSE 4.7 mph 11.3 mph 95 % 1.8 in
07:11 9.8 °F 9.0 °F 1001.2 in SE 3.2 mph 8.0 mph 95 % 1.8 in
07:17 9.8 °F 9.0 °F 1001.2 in SSE 4.7 mph 9.7 mph 95 % 1.8 in
07:23 9.8 °F 9.0 °F 1001.2 in SSE 7.9 mph 11.3 mph 95 % 1.8 in
07:29 9.7 °F 8.9 °F 1001.2 in South 6.4 mph 11.3 mph 95 % 1.5 in
07:35 9.7 °F 8.9 °F 1001.2 in SE 7.9 mph 11.3 mph 95 % 1.5 in
07:41 9.7 °F 8.9 °F 1001.2 in East 3.2 mph 6.4 mph 95 % 1.5 in
07:47 9.7 °F 8.9 °F 1001.2 in SE 4.7 mph 11.3 mph 95 % 1.5 in
07:53 9.7 °F 8.9 °F 1001.2 in ESE 7.9 mph 9.7 mph 95 % 1.3 in
07:59 9.7 °F 8.9 °F 1001.2 in SE 1.4 mph 11.3 mph 95 % 1.5 in
08:05 9.7 °F 8.9 °F 1001.2 in SSE 1.4 mph 8.0 mph 95 % 1.5 in
08:11 9.7 °F 8.9 °F 1001.2 in SE 6.4 mph 8.0 mph 95 % 1.8 in
08:17 9.8 °F 9.0 °F 1001.2 in SE 4.7 mph 8.0 mph 95 % 1.8 in
08:23 9.8 °F 9.2 °F 1001.2 in South 6.4 mph 11.3 mph 96 % 2.0 in
08:29 9.8 °F 9.2 °F 1001.2 in SSE 3.2 mph 6.4 mph 96 % 2.3 in
08:35 9.7 °F 9.1 °F 1001.2 in South 6.4 mph 8.0 mph 96 % 2.0 in
08:41 9.8 °F 9.2 °F 1001.2 in SE 3.2 mph 11.3 mph 96 % 2.3 in
08:47 9.8 °F 9.2 °F 1001.2 in Calm   9.7 mph 96 % 2.0 in
08:53 9.8 °F 9.2 °F 1001.2 in SE 3.2 mph 8.0 mph 96 % 2.0 in
08:59 9.8 °F 9.2 °F 1001.2 in SE 3.2 mph 4.8 mph 96 % 1.5 in
09:05 9.8 °F 9.2 °F 1001.2 in SE 3.2 mph 6.4 mph 96 % 1.3 in
09:11 9.8 °F 9.2 °F 1001.2 in ESE 1.4 mph 4.8 mph 96 % 1.0 in
09:17 9.8 °F 9.2 °F 1001.2 in ESE 3.2 mph 8.0 mph 96 % 1.0 in
09:23 9.9 °F 9.3 °F 1001.2 in SE 3.2 mph 4.8 mph 96 % 0.5 in
09:29 9.9 °F 9.3 °F 1001.2 in SE 9.7 mph 11.3 mph 96 % 0.5 in
09:35 10.0 °F 9.4 °F 1001.2 in SE 4.7 mph 6.4 mph 96 % 0.5 in
09:41 10.1 °F 9.5 °F 1001.2 in Calm   1.6 mph 96 % 0.3 in
09:47 10.2 °F 9.6 °F 1001.2 in SE 3.2 mph 6.4 mph 96 % 0.3 in
09:53 10.2 °F 9.6 °F 1001.2 in ESE 1.4 mph 6.4 mph 96 % 0.3 in
09:59 10.3 °F 9.7 °F 1001.6 in Calm   1.6 mph 96 % 0.3 in
10:05 10.3 °F 9.5 °F 1001.6 in Calm   4.8 mph 95 % 0.3 in
10:11 10.5 °F 9.7 °F 1001.6 in SE 1.4 mph 6.4 mph 95 % 0.3 in
10:17 10.7 °F 9.9 °F 1001.2 in ESE 3.2 mph 6.4 mph 95 % 0.0 in
10:23 10.9 °F 10.0 °F 1001.2 in SSE 1.4 mph 12.9 mph 94 % 0.0 in
10:29 11.3 °F 10.5 °F 1001.2 in Calm   4.8 mph 95 % 0.0 in
10:35 11.8 °F 10.9 °F 1001.6 in SSW 3.2 mph 3.2 mph 94 % 0.0 in
10:41 12.1 °F 10.8 °F 1001.6 in SSW 7.9 mph 9.7 mph 92 % 0.0 in
10:47 12.4 °F 11.1 °F 1001.6 in South 3.2 mph 8.0 mph 92 % 0.0 in
10:53 12.4 °F 10.8 °F 1001.6 in SE 3.2 mph 11.3 mph 90 % 0.0 in
11:00 12.4 °F 10.8 °F 1001.6 in SSE 1.4 mph 8.0 mph 90 % 0.0 in
11:06 12.4 °F 10.8 °F 1001.6 in SSE 3.2 mph 9.7 mph 90 % 0.0 in
11:12 12.4 °F 10.8 °F 1001.6 in SSW 3.2 mph 12.9 mph 90 % 0.0 in
11:18 12.6 °F 11.0 °F 1001.6 in SSE 1.4 mph 9.7 mph 90 % 0.0 in
11:24 12.7 °F 11.1 °F 1001.6 in SE 7.9 mph 8.0 mph 90 % 0.0 in
11:30 13.0 °F 11.4 °F 1001.6 in SSE 6.4 mph 8.0 mph 90 % 0.0 in
11:36 13.3 °F 11.5 °F 1001.6 in SE 6.4 mph 11.3 mph 89 % 0.0 in
11:42 13.6 °F 11.6 °F 1001.6 in SSE 4.7 mph 9.7 mph 88 % 0.0 in
11:48 13.7 °F 11.6 °F 1001.6 in SE 3.2 mph 11.3 mph 87 % 0.0 in
11:54 14.2 °F 12.1 °F 1001.6 in SSE 4.7 mph 9.7 mph 87 % 0.0 in
12:00 14.4 °F 12.1 °F 1001.6 in SSE 3.2 mph 11.3 mph 86 % 0.0 in
12:06 14.7 °F 12.0 °F 1001.6 in SSE 4.7 mph 14.5 mph 84 % 0.0 in
12:12 15.0 °F 12.1 °F 1001.6 in South 6.4 mph 12.9 mph 83 % 0.0 in
12:18 15.3 °F 12.4 °F 1001.6 in SE 7.9 mph 12.9 mph 83 % 0.0 in
12:24 15.7 °F 12.6 °F 1001.2 in SSE 4.7 mph 9.7 mph 82 % 0.0 in
12:30 15.9 °F 12.6 °F 1001.2 in SE 4.7 mph 12.9 mph 81 % 0.0 in
12:36 16.4 °F 12.9 °F 1001.2 in SSE 7.9 mph 11.3 mph 80 % 0.0 in
12:42 16.8 °F 13.1 °F 1001.2 in SSW 13.0 mph 16.1 mph 79 % 0.0 in
12:48 17.1 °F 13.2 °F 1001.2 in SW 4.7 mph 12.9 mph 78 % 0.0 in
12:54 17.1 °F 13.0 °F 1001.2 in South 14.3 mph 16.1 mph 77 % 0.0 in
13:00 17.1 °F 12.6 °F 1001.2 in SSW 13.0 mph 17.7 mph 75 % 0.0 in
13:06 17.2 °F 12.9 °F 1001.2 in SSW 7.9 mph 14.5 mph 76 % 0.0 in
13:12 17.2 °F 12.9 °F 1001.2 in SSW 14.3 mph 17.7 mph 76 % 0.0 in
13:18 17.3 °F 12.8 °F 1001.2 in SSE 7.9 mph 17.7 mph 75 % 0.0 in
13:24 17.4 °F 12.9 °F 1001.2 in SW 14.3 mph 14.5 mph 75 % 0.0 in
13:30 17.7 °F 12.2 °F 1000.9 in SW 25.9 mph 25.9 mph 70 % 0.0 in
13:36 17.9 °F 11.0 °F 1000.9 in SW 22.7 mph 27.4 mph 64 % 0.0 in
13:42 18.1 °F 11.4 °F 1000.9 in SW 13.0 mph 24.1 mph 65 % 0.0 in
13:48 18.1 °F 11.4 °F 1000.9 in SW 14.3 mph 25.7 mph 65 % 0.0 in
13:54 18.1 °F 11.4 °F 1000.9 in WSW 13.0 mph 13.0 mph 65 % 0.0 in
14:00 18.2 °F 11.5 °F 1000.9 in West 9.7 mph 14.5 mph 65 % 0.0 in
14:06 18.3 °F 11.6 °F 1000.9 in SW 11.1 mph 16.1 mph 65 % 0.0 in
14:12 18.3 °F 11.8 °F 1000.6 in SW 14.3 mph 17.7 mph 66 % 0.0 in
14:18 18.4 °F 11.7 °F 1000.6 in SW 11.1 mph 16.1 mph 65 % 0.0 in
14:24 18.4 °F 11.7 °F 1000.6 in WSW 7.9 mph 14.5 mph 65 % 0.0 in
14:30 18.4 °F 11.2 °F 1000.6 in SW 13.0 mph 20.9 mph 63 % 0.0 in
14:36 18.3 °F 11.1 °F 1000.6 in SW 11.1 mph 17.7 mph 63 % 0.0 in
14:42 18.2 °F 11.3 °F 1000.6 in SW 11.1 mph 14.5 mph 64 % 0.0 in
14:48 18.2 °F 11.3 °F 1000.9 in West 11.1 mph 19.3 mph 64 % 0.0 in
14:54 18.1 °F 11.2 °F 1000.9 in West 7.9 mph 16.1 mph 64 % 0.0 in
15:00 17.8 °F 11.4 °F 1000.9 in West 7.9 mph 12.9 mph 66 % 0.0 in
15:06 17.6 °F 11.6 °F 1000.9 in WSW 6.4 mph 6.4 mph 68 % 0.0 in
15:12 17.5 °F 11.3 °F 1000.9 in SW 1.4 mph 8.0 mph 67 % 0.0 in
15:18 17.5 °F 11.5 °F 1000.9 in WSW 1.4 mph 4.8 mph 68 % 0.0 in
15:24 17.4 °F 11.4 °F 1000.9 in SW 3.2 mph 6.4 mph 68 % 0.0 in
15:30 17.4 °F 11.7 °F 1000.9 in WSW 4.7 mph 4.8 mph 69 % 0.0 in
15:36 17.4 °F 11.4 °F 1000.9 in SSW 3.2 mph 4.8 mph 68 % 0.0 in
15:42 17.3 °F 11.6 °F 1000.6 in SW 3.2 mph 3.2 mph 69 % 0.0 in
15:48 17.3 °F 11.8 °F 1000.6 in SW 1.4 mph 4.8 mph 70 % 0.0 in
15:54 17.3 °F 11.8 °F 1000.9 in SSW 3.2 mph 3.2 mph 70 % 0.0 in
16:00 17.4 °F 11.9 °F 1000.6 in SW 1.4 mph 4.8 mph 70 % 0.0 in
16:06 17.8 °F 12.3 °F 1000.6 in South 3.2 mph 6.4 mph 70 % 0.0 in
16:12 18.0 °F 12.4 °F 1000.6 in SW 1.4 mph 4.8 mph 70 % 0.0 in
16:18 18.2 °F 12.6 °F 1000.6 in SSW 3.2 mph 4.8 mph 70 % 0.0 in
16:24 18.2 °F 12.9 °F 1000.6 in Calm   1.6 mph 71 % 0.0 in
16:31 18.2 °F 12.6 °F 1000.6 in SSW 3.2 mph 4.8 mph 70 % 0.0 in
16:37 18.0 °F 12.7 °F 1000.6 in WSW 3.2 mph 4.8 mph 71 % 0.0 in
16:43 17.9 °F 12.4 °F 1000.6 in SSW 1.4 mph 3.2 mph 70 % 0.0 in
16:49 17.8 °F 12.3 °F 1000.6 in SW 4.7 mph 6.4 mph 70 % 0.0 in
16:55 17.7 °F 12.4 °F 1000.6 in SSW 1.4 mph 4.8 mph 71 % 0.0 in
17:01 17.6 °F 12.9 °F 1000.6 in SW 4.7 mph 4.8 mph 74 % 0.0 in
17:07 17.3 °F 12.8 °F 1000.6 in SW 1.4 mph 4.8 mph 75 % 0.0 in
17:13 17.2 °F 12.5 °F 1000.6 in SW 3.2 mph 4.8 mph 74 % 0.0 in
17:19 17.1 °F 12.6 °F 1000.6 in SW 3.2 mph 4.8 mph 75 % 0.0 in
17:25 16.9 °F 12.8 °F 1000.6 in SSW 3.2 mph 6.4 mph 77 % 0.0 in
17:31 16.7 °F 12.6 °F 1000.6 in SW 7.9 mph 8.0 mph 77 % 0.0 in
17:37 16.6 °F 12.6 °F 1000.6 in SSW 7.9 mph 9.7 mph 77 % 0.0 in
17:43 16.3 °F 12.3 °F 1000.6 in SW 7.9 mph 9.7 mph 77 % 0.0 in
17:49 16.1 °F 12.3 °F 1000.6 in SW 3.2 mph 8.0 mph 78 % 0.0 in
17:55 16.3 °F 12.1 °F 1000.6 in SW 9.7 mph 9.7 mph 76 % 0.0 in
18:01 16.4 °F 12.0 °F 1000.6 in SW 9.7 mph 12.9 mph 75 % 0.0 in
18:07 16.3 °F 12.3 °F 1000.6 in SW 7.9 mph 9.7 mph 77 % 0.0 in
18:13 15.9 °F 12.3 °F 1000.6 in SSW 4.7 mph 6.4 mph 79 % 0.0 in
18:19 15.7 °F 12.1 °F 1000.6 in SW 4.7 mph 6.4 mph 79 % 0.0 in
18:25 15.6 °F 12.0 °F 1000.6 in SSW 4.7 mph 6.4 mph 79 % 0.0 in
18:31 15.4 °F 12.0 °F 1000.6 in South 1.4 mph 3.2 mph 80 % 0.0 in
18:37 15.2 °F 12.0 °F 1000.6 in South 1.4 mph 1.6 mph 81 % 0.0 in
18:43 14.9 °F 11.9 °F 1000.6 in SSW 1.4 mph 3.2 mph 82 % 0.0 in
18:49 14.8 °F 11.9 °F 1000.6 in SSW 1.4 mph 3.2 mph 83 % 0.3 in
18:55 14.6 °F 12.1 °F 1000.9 in Calm   1.6 mph 85 % 0.3 in
19:01 14.3 °F 12.0 °F 1000.9 in SSW 3.2 mph 3.2 mph 86 % 0.5 in
19:07 14.2 °F 11.9 °F 1000.9 in SSW 4.7 mph 4.8 mph 86 % 0.5 in
19:13 14.1 °F 12.0 °F 1000.9 in SW 6.4 mph 6.4 mph 87 % 0.5 in
19:19 13.9 °F 11.8 °F 1000.9 in SW 6.4 mph 8.0 mph 87 % 0.5 in
19:25 13.8 °F 11.8 °F 1000.9 in SW 4.7 mph 6.4 mph 88 % 0.5 in
19:31 13.8 °F 11.8 °F 1000.9 in SW 4.7 mph 6.4 mph 88 % 0.5 in
19:37 13.8 °F 11.8 °F 1000.9 in SSW 1.4 mph 6.4 mph 88 % 0.5 in
19:43 13.6 °F 11.8 °F 1000.6 in South 1.4 mph 6.4 mph 89 % 0.5 in
19:55 13.5 °F 11.7 °F 1000.6 in SSW 1.4 mph 1.6 mph 89 % 0.5 in
20:01 13.4 °F 11.8 °F 1000.6 in SW 1.4 mph 1.6 mph 90 % 0.3 in
20:07 13.3 °F 11.7 °F 1000.6 in Calm   1.6 mph 90 % 0.3 in
20:13 13.4 °F 11.8 °F 1000.6 in SSW 1.4 mph 3.2 mph 90 % 0.3 in
20:19 13.3 °F 11.7 °F 1000.2 in SSW 1.4 mph 1.6 mph 90 % 0.3 in
20:25 13.3 °F 11.7 °F 1000.2 in SW 1.4 mph 1.6 mph 90 % 0.0 in
20:31 13.3 °F 11.7 °F 1000.2 in Calm   1.6 mph 90 % 0.0 in
20:37 13.4 °F 11.8 °F 1000.2 in SW 1.4 mph 3.2 mph 90 % 0.0 in
20:43 13.3 °F 11.7 °F 999.9 in Calm   1.6 mph 90 % 0.3 in
20:49 13.3 °F 11.7 °F 999.9 in Calm   1.6 mph 90 % 0.3 in
20:55 13.1 °F 11.5 °F 999.9 in Calm   1.6 mph 90 % 0.3 in
21:02 13.1 °F 11.5 °F 999.5 in Calm     90 % 0.3 in
21:08 13.2 °F 11.6 °F 999.5 in Calm   1.6 mph 90 % 0.3 in
21:14 13.2 °F 11.6 °F 999.2 in Calm   1.6 mph 90 % 0.3 in
21:20 13.1 °F 11.5 °F 999.5 in ENE 1.4 mph 1.6 mph 90 % 0.3 in
21:26 13.0 °F 11.4 °F 999.5 in SE 1.4 mph 4.8 mph 90 % 0.3 in
21:32 12.9 °F 11.5 °F 999.9 in SSE 6.4 mph 8.0 mph 91 % 0.3 in
21:38 13.1 °F 11.7 °F 1000.2 in SE 7.9 mph 12.9 mph 91 % 0.5 in
21:44 13.2 °F 11.8 °F 999.9 in SE 4.7 mph 12.9 mph 91 % 0.5 in
21:50 13.2 °F 11.8 °F 999.9 in SE 13.0 mph 17.7 mph 91 % 0.8 in
21:56 13.1 °F 11.7 °F 999.9 in SE 3.2 mph 14.5 mph 91 % 1.3 in
22:02 13.1 °F 11.8 °F 999.9 in SE 3.2 mph 11.3 mph 92 % 1.3 in
22:08 13.0 °F 11.7 °F 999.9 in Calm   6.4 mph 92 % 1.3 in
22:14 12.9 °F 11.6 °F 999.5 in SE 1.4 mph 4.8 mph 92 % 1.3 in
22:20 12.8 °F 11.7 °F 999.5 in ESE 3.2 mph 4.8 mph 93 % 1.5 in
22:26 12.8 °F 11.7 °F 999.5 in Calm   1.6 mph 93 % 1.5 in
22:32 12.7 °F 11.6 °F 999.2 in Calm     93 % 1.5 in
22:38 12.7 °F 11.6 °F 999.2 in WSW 1.4 mph 1.6 mph 93 % 1.3 in
22:44 12.7 °F 11.8 °F 999.2 in Calm     94 % 1.0 in
22:50 12.6 °F 11.7 °F 999.2 in East 3.2 mph 4.8 mph 94 % 0.5 in
22:56 12.6 °F 11.7 °F 998.9 in Calm   1.6 mph 94 % 0.5 in
23:02 12.5 °F 11.6 °F 998.9 in Calm     94 % 0.5 in
23:08 12.5 °F 11.6 °F 998.9 in Calm     94 % 0.5 in
23:14 12.4 °F 11.5 °F 998.9 in ENE 1.4 mph 1.6 mph 94 % 0.5 in
23:20 12.3 °F 11.4 °F 998.5 in North 1.4 mph 1.6 mph 94 % 0.3 in
23:26 12.2 °F 11.3 °F 998.5 in WNW 1.4 mph 1.6 mph 94 % 0.3 in
23:32 12.2 °F 11.4 °F 998.5 in NW 1.4 mph 3.2 mph 95 % 0.0 in
23:38 12.3 °F 11.5 °F 998.5 in NNE 3.2 mph 3.2 mph 95 % 0.0 in
23:44 12.3 °F 11.5 °F 998.2 in North 1.4 mph 3.2 mph 95 % 0.0 in
23:50 12.2 °F 11.4 °F 998.2 in Calm     95 % 0.0 in
23:56 12.1 °F 11.3 °F 998.2 in NNW 1.4 mph 1.6 mph 95 % 0.0 in
Meteo18
Compliments of Weather Underground - 4 mb

Script developed by  Jim McMurry - jmcmurry@mwt.net Adapted for the template by  Wim van der Kuil - Leuven-Template.eu

You find our weather info also at:

European Weather Network

Weather Underground

Equipment we use:

Weather-station
Davis Vue

Weather-program
Meteobridge

Weather-server
Raspberry PI 2 B+

Provider
1 and 1

Davis Vue

Meteobridge

Raspberry PI 2 B+

1 and 1